sensor_id;sensor_type;location;lat;lon;timestamp;pressure;altitude;pressure_sealevel;temperature;humidity
76297;BME280;65104;52.994;6.552;2023-03-22T00:00:47;100764.78;;;9.48;94.76
76297;BME280;65104;52.994;6.552;2023-03-22T00:03:13;100756.19;;;9.46;94.13
76297;BME280;65104;52.994;6.552;2023-03-22T00:05:39;100763.09;;;9.50;92.92
76297;BME280;65104;52.994;6.552;2023-03-22T00:08:04;100755.34;;;9.47;93.92
76297;BME280;65104;52.994;6.552;2023-03-22T00:10:32;100754.44;;;9.45;94.01
76297;BME280;65104;52.994;6.552;2023-03-22T00:12:58;100763.84;;;9.44;93.45
76297;BME280;65104;52.994;6.552;2023-03-22T00:15:23;100758.59;;;9.38;94.16
76297;BME280;65104;52.994;6.552;2023-03-22T00:17:48;100762.75;;;9.34;93.66
76297;BME280;65104;52.994;6.552;2023-03-22T00:20:14;100759.28;;;9.32;93.94
76297;BME280;65104;52.994;6.552;2023-03-22T00:22:42;100759.38;;;9.35;93.59
76297;BME280;65104;52.994;6.552;2023-03-22T00:25:08;100749.88;;;9.31;94.12
76297;BME280;65104;52.994;6.552;2023-03-22T00:27:34;100742.13;;;9.28;93.56
76297;BME280;65104;52.994;6.552;2023-03-22T00:30:00;100747.97;;;9.23;94.44
76297;BME280;65104;52.994;6.552;2023-03-22T00:32:25;100748.00;;;9.24;93.64
76297;BME280;65104;52.994;6.552;2023-03-22T00:34:51;100746.06;;;9.14;94.72
76297;BME280;65104;52.994;6.552;2023-03-22T00:37:16;100739.19;;;9.12;94.25
76297;BME280;65104;52.994;6.552;2023-03-22T00:39:43;100738.38;;;9.14;93.83
76297;BME280;65104;52.994;6.552;2023-03-22T00:42:09;100735.81;;;9.14;93.29
76297;BME280;65104;52.994;6.552;2023-03-22T00:44:34;100731.47;;;9.10;93.21
76297;BME280;65104;52.994;6.552;2023-03-22T00:47:00;100731.41;;;9.07;93.24
76297;BME280;65104;52.994;6.552;2023-03-22T00:49:26;100732.19;;;9.04;93.67
76297;BME280;65104;52.994;6.552;2023-03-22T00:51:51;100721.81;;;8.98;94.18
76297;BME280;65104;52.994;6.552;2023-03-22T00:54:17;100726.06;;;8.98;93.48
76297;BME280;65104;52.994;6.552;2023-03-22T00:56:43;100726.84;;;8.94;93.77
76297;BME280;65104;52.994;6.552;2023-03-22T00:59:12;100725.97;;;8.95;93.80
76297;BME280;65104;52.994;6.552;2023-03-22T01:01:38;100723.38;;;8.92;94.34
76297;BME280;65104;52.994;6.552;2023-03-22T01:04:04;100716.44;;;8.88;93.17
76297;BME280;65104;52.994;6.552;2023-03-22T01:06:33;100711.25;;;8.86;93.49
76297;BME280;65104;52.994;6.552;2023-03-22T01:08:58;100713.88;;;8.88;93.43
76297;BME280;65104;52.994;6.552;2023-03-22T01:11:25;100711.53;;;8.97;92.49
76297;BME280;65104;52.994;6.552;2023-03-22T01:13:53;100707.19;;;8.93;92.64
76297;BME280;65104;52.994;6.552;2023-03-22T01:16:21;100705.34;;;8.89;92.42
76297;BME280;65104;52.994;6.552;2023-03-22T01:18:46;100705.34;;;8.89;93.05
76297;BME280;65104;52.994;6.552;2023-03-22T01:21:12;100701.97;;;8.90;92.23
76297;BME280;65104;52.994;6.552;2023-03-22T01:23:37;100701.19;;;8.92;92.04
76297;BME280;65104;52.994;6.552;2023-03-22T01:26:04;100698.47;;;8.85;92.29
76297;BME280;65104;52.994;6.552;2023-03-22T01:28:30;100696.78;;;8.87;91.73
76297;BME280;65104;52.994;6.552;2023-03-22T01:30:59;100695.78;;;8.80;93.19
76297;BME280;65104;52.994;6.552;2023-03-22T01:33:25;100693.13;;;8.77;92.69
76297;BME280;65104;52.994;6.552;2023-03-22T01:35:50;100695.59;;;8.73;93.15
76297;BME280;65104;52.994;6.552;2023-03-22T01:38:16;100687.25;;;8.81;92.07
76297;BME280;65104;52.994;6.552;2023-03-22T01:40:41;100677.75;;;8.77;92.72
76297;BME280;65104;52.994;6.552;2023-03-22T01:43:14;100682.78;;;8.73;92.63
76297;BME280;65104;52.994;6.552;2023-03-22T01:45:47;100684.75;;;8.83;91.67
76297;BME280;65104;52.994;6.552;2023-03-22T01:48:36;100676.94;;;8.78;92.53
76297;BME280;65104;52.994;6.552;2023-03-22T01:51:11;100664.06;;;8.74;92.37
76297;BME280;65104;52.994;6.552;2023-03-22T01:53:48;100673.31;;;8.69;92.35
76297;BME280;65104;52.994;6.552;2023-03-22T01:56:17;100664.84;;;8.71;92.25
76297;BME280;65104;52.994;6.552;2023-03-22T01:58:43;100673.31;;;8.69;92.68
76297;BME280;65104;52.994;6.552;2023-03-22T02:01:10;100667.34;;;8.70;92.30
76297;BME280;65104;52.994;6.552;2023-03-22T02:03:46;100663.84;;;8.64;92.31
76297;BME280;65104;52.994;6.552;2023-03-22T02:06:12;100660.38;;;8.62;92.57
76297;BME280;65104;52.994;6.552;2023-03-22T02:08:38;100648.59;;;8.71;92.21
76297;BME280;65104;52.994;6.552;2023-03-22T02:11:05;100646.09;;;8.72;92.73
76297;BME280;65104;52.994;6.552;2023-03-22T02:38:26;100633.34;;;8.74;92.12
76297;BME280;65104;52.994;6.552;2023-03-22T02:46:45;100617.19;;;8.76;91.54
76297;BME280;65104;52.994;6.552;2023-03-22T02:51:44;100616.28;;;8.74;91.64
76297;BME280;65104;52.994;6.552;2023-03-22T02:54:34;100616.41;;;8.80;91.46
76297;BME280;65104;52.994;6.552;2023-03-22T02:57:09;100605.41;;;8.86;91.31
76297;BME280;65104;52.994;6.552;2023-03-22T02:59:37;100608.00;;;8.87;90.73
76297;BME280;65104;52.994;6.552;2023-03-22T03:02:06;100603.75;;;8.88;90.12
76297;BME280;65104;52.994;6.552;2023-03-22T03:04:36;100603.00;;;8.92;91.00
76297;BME280;65104;52.994;6.552;2023-03-22T03:07:07;100601.28;;;8.91;90.54
76297;BME280;65104;52.994;6.552;2023-03-22T03:09:35;100596.13;;;8.89;90.43
76297;BME280;65104;52.994;6.552;2023-03-22T03:12:01;100593.53;;;8.88;91.14
76297;BME280;65104;52.994;6.552;2023-03-22T03:14:29;100583.25;;;8.86;90.80
76297;BME280;65104;52.994;6.552;2023-03-22T03:19:44;100586.47;;;8.76;91.91
76297;BME280;65104;52.994;6.552;2023-03-22T03:22:28;100579.81;;;8.84;90.97
76297;BME280;65104;52.994;6.552;2023-03-22T03:27:52;100571.06;;;8.75;91.77
76297;BME280;65104;52.994;6.552;2023-03-22T03:30:27;100571.09;;;8.76;91.28
76297;BME280;65104;52.994;6.552;2023-03-22T03:33:00;100570.25;;;8.76;91.88
76297;BME280;65104;52.994;6.552;2023-03-22T03:35:31;100566.81;;;8.75;91.28
76297;BME280;65104;52.994;6.552;2023-03-22T03:38:14;100561.63;;;8.72;91.90
76297;BME280;65104;52.994;6.552;2023-03-22T03:40:56;100565.91;;;8.73;92.06
76297;BME280;65104;52.994;6.552;2023-03-22T03:43:23;100560.81;;;8.75;91.51
76297;BME280;65104;52.994;6.552;2023-03-22T03:45:50;100555.66;;;8.73;91.28
76297;BME280;65104;52.994;6.552;2023-03-22T03:48:21;100565.03;;;8.73;91.28
76297;BME280;65104;52.994;6.552;2023-03-22T03:50:49;100558.25;;;8.75;91.66
76297;BME280;65104;52.994;6.552;2023-03-22T03:53:16;100556.53;;;8.74;91.27
76297;BME280;65104;52.994;6.552;2023-03-22T03:55:42;100549.69;;;8.73;91.06
76297;BME280;65104;52.994;6.552;2023-03-22T03:58:08;100550.63;;;8.78;91.14
76297;BME280;65104;52.994;6.552;2023-03-22T04:00:34;100540.44;;;8.79;90.80
76297;BME280;65104;52.994;6.552;2023-03-22T04:03:00;100536.13;;;8.77;90.53
76297;BME280;65104;52.994;6.552;2023-03-22T04:05:26;100536.06;;;8.74;91.13
76297;BME280;65104;52.994;6.552;2023-03-22T04:07:51;100537.81;;;8.78;90.89
76297;BME280;65104;52.994;6.552;2023-03-22T04:10:17;100527.59;;;8.76;91.07
76297;BME280;65104;52.994;6.552;2023-03-22T04:12:42;100526.63;;;8.73;91.17
76297;BME280;65104;52.994;6.552;2023-03-22T04:15:08;100527.47;;;8.72;90.78
76297;BME280;65104;52.994;6.552;2023-03-22T04:17:34;100516.50;;;8.79;90.81
76297;BME280;65104;52.994;6.552;2023-03-22T04:19:59;100528.44;;;8.77;90.58
76297;BME280;65104;52.994;6.552;2023-03-22T04:22:30;100534.41;;;8.77;90.90
76297;BME280;65104;52.994;6.552;2023-03-22T04:24:59;100530.16;;;8.78;90.88
76297;BME280;65104;52.994;6.552;2023-03-22T04:27:26;100525.97;;;8.81;90.67
76297;BME280;65104;52.994;6.552;2023-03-22T04:29:51;100526.78;;;8.80;90.87
76297;BME280;65104;52.994;6.552;2023-03-22T04:32:19;100530.25;;;8.82;90.66
76297;BME280;65104;52.994;6.552;2023-03-22T04:34:47;100523.47;;;8.84;91.00
76297;BME280;65104;52.994;6.552;2023-03-22T04:37:14;100529.41;;;8.82;91.14
76297;BME280;65104;52.994;6.552;2023-03-22T04:39:40;100526.91;;;8.85;91.25
76297;BME280;65104;52.994;6.552;2023-03-22T04:42:05;100511.63;;;8.89;91.51
76297;BME280;65104;52.994;6.552;2023-03-22T04:44:31;100522.72;;;8.90;91.45
76297;BME280;65104;52.994;6.552;2023-03-22T04:46:56;100519.34;;;8.91;91.92
76297;BME280;65104;52.994;6.552;2023-03-22T04:49:22;100521.13;;;8.95;92.12
76297;BME280;65104;52.994;6.552;2023-03-22T04:51:47;100516.00;;;8.95;91.70
76297;BME280;65104;52.994;6.552;2023-03-22T04:54:13;100505.81;;;8.98;91.67
76297;BME280;65104;52.994;6.552;2023-03-22T04:56:38;100508.47;;;9.02;92.03
76297;BME280;65104;52.994;6.552;2023-03-22T04:59:03;100506.78;;;9.03;92.45
76297;BME280;65104;52.994;6.552;2023-03-22T05:01:29;100501.66;;;9.03;92.79
76297;BME280;65104;52.994;6.552;2023-03-22T05:03:54;100501.66;;;9.04;92.56
76297;BME280;65104;52.994;6.552;2023-03-22T05:06:20;100503.38;;;9.02;92.68
76297;BME280;65104;52.994;6.552;2023-03-22T05:08:45;100505.16;;;9.08;93.44
76297;BME280;65104;52.994;6.552;2023-03-22T05:11:13;100499.09;;;9.03;92.93
76297;BME280;65104;52.994;6.552;2023-03-22T05:13:40;100489.72;;;9.03;93.32
76297;BME280;65104;52.994;6.552;2023-03-22T05:16:06;100491.59;;;9.12;93.22
76297;BME280;65104;52.994;6.552;2023-03-22T05:18:32;100485.59;;;9.12;93.81
76297;BME280;65104;52.994;6.552;2023-03-22T05:20:58;100478.72;;;9.09;93.17
76297;BME280;65104;52.994;6.552;2023-03-22T05:23:24;100483.09;;;9.15;93.68
76297;BME280;65104;52.994;6.552;2023-03-22T05:25:51;100477.13;;;9.16;93.84
76297;BME280;65104;52.994;6.552;2023-03-22T05:28:18;100469.38;;;9.13;93.93
76297;BME280;65104;52.994;6.552;2023-03-22T05:30:46;100468.53;;;9.12;93.63
76297;BME280;65104;52.994;6.552;2023-03-22T05:33:11;100477.06;;;9.11;94.05
76297;BME280;65104;52.994;6.552;2023-03-22T05:35:39;100470.28;;;9.15;94.04
76297;BME280;65104;52.994;6.552;2023-03-22T05:38:06;100465.13;;;9.12;94.44
76297;BME280;65104;52.994;6.552;2023-03-22T05:40:32;100460.75;;;9.08;94.48
76297;BME280;65104;52.994;6.552;2023-03-22T05:42:58;100459.13;;;9.13;93.83
76297;BME280;65104;52.994;6.552;2023-03-22T05:45:24;100456.50;;;9.08;94.15
76297;BME280;65104;52.994;6.552;2023-03-22T05:47:50;100452.25;;;9.09;94.49
76297;BME280;65104;52.994;6.552;2023-03-22T05:50:21;100457.41;;;9.10;94.25
76297;BME280;65104;52.994;6.552;2023-03-22T05:52:47;100449.72;;;9.10;94.58
76297;BME280;65104;52.994;6.552;2023-03-22T05:55:13;100453.03;;;9.06;94.33
76297;BME280;65104;52.994;6.552;2023-03-22T05:57:42;100453.94;;;9.08;94.29
76297;BME280;65104;52.994;6.552;2023-03-22T06:00:11;100451.34;;;9.07;94.43
76297;BME280;65104;52.994;6.552;2023-03-22T06:02:41;100454.00;;;9.11;94.65
76297;BME280;65104;52.994;6.552;2023-03-22T06:05:08;100452.31;;;9.12;94.15
76297;BME280;65104;52.994;6.552;2023-03-22T06:07:35;100453.13;;;9.09;94.59
76297;BME280;65104;52.994;6.552;2023-03-22T06:10:01;100445.47;;;9.11;95.00
76297;BME280;65104;52.994;6.552;2023-03-22T06:12:26;100448.06;;;9.12;94.54
76297;BME280;65104;52.994;6.552;2023-03-22T06:14:52;100455.81;;;9.17;94.26
76297;BME280;65104;52.994;6.552;2023-03-22T06:17:18;100449.84;;;9.18;94.37
76297;BME280;65104;52.994;6.552;2023-03-22T06:19:43;100442.22;;;9.22;94.11
76297;BME280;65104;52.994;6.552;2023-03-22T06:22:09;100443.13;;;9.24;93.90
76297;BME280;65104;52.994;6.552;2023-03-22T06:24:35;100438.03;;;9.26;93.95
76297;BME280;65104;52.994;6.552;2023-03-22T06:27:00;100429.56;;;9.28;94.13
76297;BME280;65104;52.994;6.552;2023-03-22T06:29:26;100430.41;;;9.29;93.60
76297;BME280;65104;52.994;6.552;2023-03-22T06:31:51;100423.63;;;9.32;93.93
76297;BME280;65104;52.994;6.552;2023-03-22T06:34:16;100415.06;;;9.32;93.78
76297;BME280;65104;52.994;6.552;2023-03-22T06:36:42;100418.59;;;9.37;94.31
76297;BME280;65104;52.994;6.552;2023-03-22T06:39:08;100417.72;;;9.36;93.66
76297;BME280;65104;52.994;6.552;2023-03-22T06:41:33;100422.84;;;9.36;93.90
76297;BME280;65104;52.994;6.552;2023-03-22T06:43:59;100407.50;;;9.39;93.59
76297;BME280;65104;52.994;6.552;2023-03-22T06:46:25;100411.88;;;9.44;93.86
76297;BME280;65104;52.994;6.552;2023-03-22T06:48:50;100408.56;;;9.51;93.42
76297;BME280;65104;52.994;6.552;2023-03-22T06:51:15;100418.94;;;9.60;93.40
76297;BME280;65104;52.994;6.552;2023-03-22T06:53:41;100421.63;;;9.66;92.84
76297;BME280;65104;52.994;6.552;2023-03-22T06:56:06;100424.19;;;9.67;92.51
76297;BME280;65104;52.994;6.552;2023-03-22T06:58:32;100419.09;;;9.69;92.62
76297;BME280;65104;52.994;6.552;2023-03-22T07:00:57;100415.72;;;9.71;92.99
76297;BME280;65104;52.994;6.552;2023-03-22T07:03:23;100413.13;;;9.70;92.75
76297;BME280;65104;52.994;6.552;2023-03-22T07:05:48;100426.94;;;9.78;92.70
76297;BME280;65104;52.994;6.552;2023-03-22T07:08:14;100419.34;;;9.86;91.95
76297;BME280;65104;52.994;6.552;2023-03-22T07:10:40;100417.00;;;9.99;90.99
76297;BME280;65104;52.994;6.552;2023-03-22T07:13:06;100419.66;;;10.07;90.88
76297;BME280;65104;52.994;6.552;2023-03-22T07:15:31;100412.03;;;10.13;90.48
76297;BME280;65104;52.994;6.552;2023-03-22T07:17:59;100406.19;;;10.20;89.58
76297;BME280;65104;52.994;6.552;2023-03-22T07:20:26;100412.03;;;10.13;89.91
76297;BME280;65104;52.994;6.552;2023-03-22T07:22:51;100410.31;;;10.12;90.18
76297;BME280;65104;52.994;6.552;2023-03-22T07:25:17;100412.88;;;10.12;90.14
76297;BME280;65104;52.994;6.552;2023-03-22T07:27:42;100415.44;;;10.09;90.15
76297;BME280;65104;52.994;6.552;2023-03-22T07:30:08;100411.13;;;10.08;90.37
76297;BME280;65104;52.994;6.552;2023-03-22T07:32:33;100418.19;;;10.20;89.16
76297;BME280;65104;52.994;6.552;2023-03-22T07:34:59;100411.38;;;10.25;89.54
76297;BME280;65104;52.994;6.552;2023-03-22T07:37:24;100409.59;;;10.18;89.61
76297;BME280;65104;52.994;6.552;2023-03-22T07:39:50;100408.75;;;10.20;89.01
76297;BME280;65104;52.994;6.552;2023-03-22T07:42:15;100414.59;;;10.11;89.87
76297;BME280;65104;52.994;6.552;2023-03-22T07:44:41;100407.78;;;10.13;89.87
76297;BME280;65104;52.994;6.552;2023-03-22T07:47:09;100408.59;;;10.09;89.22
76297;BME280;65104;52.994;6.552;2023-03-22T07:49:35;100412.88;;;10.09;89.05
76297;BME280;65104;52.994;6.552;2023-03-22T07:52:00;100415.44;;;10.10;88.42
76297;BME280;65104;52.994;6.552;2023-03-22T07:54:28;100405.19;;;10.10;88.21
76297;BME280;65104;52.994;6.552;2023-03-22T07:56:55;100417.13;;;10.08;88.47
76297;BME280;65104;52.994;6.552;2023-03-22T07:59:20;100418.84;;;10.09;88.57
76297;BME280;65104;52.994;6.552;2023-03-22T08:01:46;100406.88;;;10.11;87.97
76297;BME280;65104;52.994;6.552;2023-03-22T08:04:12;100409.63;;;10.22;87.44
76297;BME280;65104;52.994;6.552;2023-03-22T08:06:37;100404.63;;;10.31;86.65
76297;BME280;65104;52.994;6.552;2023-03-22T08:09:05;100404.09;;;10.55;85.94
76297;BME280;65104;52.994;6.552;2023-03-22T08:11:33;100403.31;;;10.65;85.14
76297;BME280;65104;52.994;6.552;2023-03-22T08:14:01;100401.72;;;10.73;84.86
76297;BME280;65104;52.994;6.552;2023-03-22T08:16:26;100413.72;;;10.76;84.65
76297;BME280;65104;52.994;6.552;2023-03-22T08:18:52;100407.63;;;10.68;84.65
76297;BME280;65104;52.994;6.552;2023-03-22T08:21:17;100408.34;;;10.56;84.41
76297;BME280;65104;52.994;6.552;2023-03-22T08:23:43;100407.50;;;10.54;85.22
76297;BME280;65104;52.994;6.552;2023-03-22T08:26:09;100403.09;;;10.47;85.25
76297;BME280;65104;52.994;6.552;2023-03-22T08:28:35;100417.66;;;10.48;85.60
76297;BME280;65104;52.994;6.552;2023-03-22T08:31:01;100410.81;;;10.47;86.00
76297;BME280;65104;52.994;6.552;2023-03-22T08:33:26;100409.97;;;10.46;85.13
76297;BME280;65104;52.994;6.552;2023-03-22T08:36:03;100398.81;;;10.47;85.37
76297;BME280;65104;52.994;6.552;2023-03-22T08:38:29;100390.38;;;10.56;85.32
76297;BME280;65104;52.994;6.552;2023-03-22T08:40:54;100386.41;;;10.82;84.68
76297;BME280;65104;52.994;6.552;2023-03-22T08:43:20;100394.19;;;10.91;84.07
76297;BME280;65104;52.994;6.552;2023-03-22T08:45:45;100389.19;;;11.05;83.72
76297;BME280;65104;52.994;6.552;2023-03-22T08:48:11;100391.00;;;11.15;82.89
76297;BME280;65104;52.994;6.552;2023-03-22T08:50:37;100382.47;;;11.18;83.14
76297;BME280;65104;52.994;6.552;2023-03-22T08:53:03;100375.69;;;11.26;82.12
76297;BME280;65104;52.994;6.552;2023-03-22T08:55:30;100379.06;;;11.22;82.33
76297;BME280;65104;52.994;6.552;2023-03-22T08:57:55;100393.75;;;11.34;82.19
76297;BME280;65104;52.994;6.552;2023-03-22T09:00:23;100373.97;;;11.28;81.21
76297;BME280;65104;52.994;6.552;2023-03-22T09:02:49;100372.31;;;11.33;81.37
76297;BME280;65104;52.994;6.552;2023-03-22T09:05:14;100386.91;;;11.39;81.60
76297;BME280;65104;52.994;6.552;2023-03-22T09:07:40;100378.63;;;11.75;80.63
76297;BME280;65104;52.994;6.552;2023-03-22T09:10:06;100364.09;;;11.77;80.02
76297;BME280;65104;52.994;6.552;2023-03-22T09:12:32;100386.13;;;11.47;80.36
76297;BME280;65104;52.994;6.552;2023-03-22T09:14:57;100379.19;;;11.34;81.26
76297;BME280;65104;52.994;6.552;2023-03-22T09:17:23;100381.69;;;11.26;81.18
76297;BME280;65104;52.994;6.552;2023-03-22T09:19:48;100389.34;;;11.22;81.57
76297;BME280;65104;52.994;6.552;2023-03-22T09:22:14;100389.31;;;11.16;81.26
76297;BME280;65104;52.994;6.552;2023-03-22T09:24:39;100384.22;;;11.23;81.29
76297;BME280;65104;52.994;6.552;2023-03-22T09:27:04;100398.72;;;11.15;80.94
76297;BME280;65104;52.994;6.552;2023-03-22T09:29:30;100369.59;;;11.16;80.68
76297;BME280;65104;52.994;6.552;2023-03-22T09:31:56;100381.69;;;11.26;81.02
76297;BME280;65104;52.994;6.552;2023-03-22T09:34:21;100386.75;;;11.20;80.25
76297;BME280;65104;52.994;6.552;2023-03-22T09:36:47;100373.94;;;11.23;80.38
76297;BME280;65104;52.994;6.552;2023-03-22T09:39:13;100389.38;;;11.25;80.53
76297;BME280;65104;52.994;6.552;2023-03-22T09:42:01;100375.69;;;11.29;80.08
76297;BME280;65104;52.994;6.552;2023-03-22T09:44:33;100379.16;;;11.33;80.54
76297;BME280;65104;52.994;6.552;2023-03-22T09:47:03;100377.34;;;11.21;80.83
76297;BME280;65104;52.994;6.552;2023-03-22T09:49:36;100370.47;;;11.20;81.02
76297;BME280;65104;52.994;6.552;2023-03-22T09:52:11;100374.66;;;11.06;81.04
76297;BME280;65104;52.994;6.552;2023-03-22T09:54:39;100383.06;;;10.93;82.53
76297;BME280;65104;52.994;6.552;2023-03-22T09:59:56;100389.91;;;10.89;84.12
76297;BME280;65104;52.994;6.552;2023-03-22T10:08:22;100399.09;;;10.69;83.01
76297;BME280;65104;52.994;6.552;2023-03-22T10:10:49;100387.94;;;10.67;83.81
76297;BME280;65104;52.994;6.552;2023-03-22T10:13:25;100386.94;;;10.54;84.56
76297;BME280;65104;52.994;6.552;2023-03-22T10:15:58;100391.03;;;10.37;85.73
76297;BME280;65104;52.994;6.552;2023-03-22T10:18:33;100394.34;;;10.28;87.53
76297;BME280;65104;52.994;6.552;2023-03-22T10:21:05;100393.47;;;10.28;88.60
76297;BME280;65104;52.994;6.552;2023-03-22T10:23:45;100387.44;;;10.24;87.42
76297;BME280;65104;52.994;6.552;2023-03-22T10:26:38;100396.03;;;10.29;87.39
76297;BME280;65104;52.994;6.552;2023-03-22T10:29:25;100386.69;;;10.33;89.00
76297;BME280;65104;52.994;6.552;2023-03-22T10:31:54;100373.00;;;10.34;87.68
76297;BME280;65104;52.994;6.552;2023-03-22T10:34:26;100390.16;;;10.36;87.22
76297;BME280;65104;52.994;6.552;2023-03-22T10:36:57;100390.25;;;10.44;87.79
76297;BME280;65104;52.994;6.552;2023-03-22T10:39:26;100384.31;;;10.46;87.51
76297;BME280;65104;52.994;6.552;2023-03-22T10:41:54;100392.78;;;10.41;87.87
76297;BME280;65104;52.994;6.552;2023-03-22T10:44:22;100390.06;;;10.30;88.14
76297;BME280;65104;52.994;6.552;2023-03-22T10:46:50;100386.63;;;10.27;88.39
76297;BME280;65104;52.994;6.552;2023-03-22T10:49:28;100395.16;;;10.26;90.10
76297;BME280;65104;52.994;6.552;2023-03-22T10:52:02;100392.41;;;10.15;89.47
76297;BME280;65104;52.994;6.552;2023-03-22T10:54:28;100389.81;;;10.10;89.66
76297;BME280;65104;52.994;6.552;2023-03-22T10:56:54;100398.34;;;10.09;89.36
76297;BME280;65104;52.994;6.552;2023-03-22T10:59:45;100395.94;;;10.22;90.67
76297;BME280;65104;52.994;6.552;2023-03-22T11:02:23;100394.06;;;10.10;91.37
76297;BME280;65104;52.994;6.552;2023-03-22T11:04:51;100391.44;;;10.07;90.46
76297;BME280;65104;52.994;6.552;2023-03-22T11:07:37;100393.09;;;10.03;91.28
76297;BME280;65104;52.994;6.552;2023-03-22T11:12:37;100410.13;;;9.97;92.86
76297;BME280;65104;52.994;6.552;2023-03-22T11:15:04;100393.91;;;9.99;92.23
76297;BME280;65104;52.994;6.552;2023-03-22T11:17:30;100402.47;;;10.00;92.74
76297;BME280;65104;52.994;6.552;2023-03-22T11:20:00;100398.09;;;9.94;93.61
76297;BME280;65104;52.994;6.552;2023-03-22T11:22:38;100408.34;;;9.91;93.32
76297;BME280;65104;52.994;6.552;2023-03-22T11:25:12;100403.22;;;9.93;93.91
76297;BME280;65104;52.994;6.552;2023-03-22T11:27:50;100398.09;;;9.94;93.51
76297;BME280;65104;52.994;6.552;2023-03-22T11:30:25;100398.22;;;10.02;94.27
76297;BME280;65104;52.994;6.552;2023-03-22T11:33:14;100398.22;;;10.02;93.45
76297;BME280;65104;52.994;6.552;2023-03-22T11:35:44;100392.22;;;10.03;93.10
76297;BME280;65104;52.994;6.552;2023-03-22T11:38:26;100393.94;;;10.01;93.01
76297;BME280;65104;52.994;6.552;2023-03-22T11:41:01;100385.50;;;10.09;93.61
76297;BME280;65104;52.994;6.552;2023-03-22T11:43:46;100382.09;;;10.10;92.49
76297;BME280;65104;52.994;6.552;2023-03-22T11:46:15;100377.84;;;10.14;92.86
76297;BME280;65104;52.994;6.552;2023-03-22T11:48:45;100391.50;;;10.11;93.32
76297;BME280;65104;52.994;6.552;2023-03-22T11:51:13;100380.41;;;10.14;92.93
76297;BME280;65104;52.994;6.552;2023-03-22T11:53:42;100388.16;;;10.15;93.69
76297;BME280;65104;52.994;6.552;2023-03-22T11:56:16;100369.34;;;10.16;93.48
76297;BME280;65104;52.994;6.552;2023-03-22T11:58:46;100371.03;;;10.16;94.10
76297;BME280;65104;52.994;6.552;2023-03-22T12:01:23;100381.38;;;10.21;93.72
76297;BME280;65104;52.994;6.552;2023-03-22T12:03:55;100386.50;;;10.18;93.89
76297;BME280;65104;52.994;6.552;2023-03-22T12:06:31;100397.53;;;10.15;92.05
76297;BME280;65104;52.994;6.552;2023-03-22T12:09:04;100387.25;;;10.13;91.88
76297;BME280;65104;52.994;6.552;2023-03-22T12:11:38;100404.34;;;10.13;92.37
76297;BME280;65104;52.994;6.552;2023-03-22T12:14:24;100400.94;;;10.14;93.40
76297;BME280;65104;52.994;6.552;2023-03-22T12:16:59;100408.66;;;10.15;91.73
76297;BME280;65104;52.994;6.552;2023-03-22T12:22:15;100417.19;;;10.14;91.77
76297;BME280;65104;52.994;6.552;2023-03-22T12:24:42;100422.34;;;10.16;91.65
76297;BME280;65104;52.994;6.552;2023-03-22T12:27:14;100410.34;;;10.13;91.87
76297;BME280;65104;52.994;6.552;2023-03-22T12:29:46;100424.84;;;10.10;91.95
76297;BME280;65104;52.994;6.552;2023-03-22T12:32:23;100406.88;;;10.08;92.69
76297;BME280;65104;52.994;6.552;2023-03-22T12:34:51;100411.16;;;10.09;92.23
76297;BME280;65104;52.994;6.552;2023-03-22T12:37:21;100400.91;;;10.12;91.43
76297;BME280;65104;52.994;6.552;2023-03-22T12:39:52;100409.44;;;10.11;91.62
76297;BME280;65104;52.994;6.552;2023-03-22T12:42:24;100401.81;;;10.14;91.73
76297;BME280;65104;52.994;6.552;2023-03-22T12:44:57;100412.06;;;10.14;92.14
76297;BME280;65104;52.994;6.552;2023-03-22T12:47:48;100400.09;;;10.13;93.60
76297;BME280;65104;52.994;6.552;2023-03-22T12:50:38;100403.34;;;10.00;94.68
76297;BME280;65104;52.994;6.552;2023-03-22T12:53:14;100404.19;;;10.02;95.21
76297;BME280;65104;52.994;6.552;2023-03-22T12:55:41;100403.22;;;9.94;96.13
76297;BME280;65104;52.994;6.552;2023-03-22T12:58:09;100394.69;;;9.92;97.22
76297;BME280;65104;52.994;6.552;2023-03-22T13:00:57;100403.09;;;9.84;97.44
76297;BME280;65104;52.994;6.552;2023-03-22T13:03:28;100417.63;;;9.83;98.27
76297;BME280;65104;52.994;6.552;2023-03-22T13:06:06;100409.03;;;9.81;97.88
76297;BME280;65104;52.994;6.552;2023-03-22T13:09:11;100406.44;;;9.79;98.67
76297;BME280;65104;52.994;6.552;2023-03-22T13:11:40;100410.75;;;9.82;99.60
76297;BME280;65104;52.994;6.552;2023-03-22T13:14:06;100420.94;;;9.77;99.92
76297;BME280;65104;52.994;6.552;2023-03-22T13:17:00;100413.34;;;9.84;99.77
76297;BME280;65104;52.994;6.552;2023-03-22T13:19:31;100408.19;;;9.82;100.00
76297;BME280;65104;52.994;6.552;2023-03-22T13:25:12;100421.91;;;9.84;100.00
76297;BME280;65104;52.994;6.552;2023-03-22T13:32:59;100414.91;;;9.75;100.00
76297;BME280;65104;52.994;6.552;2023-03-22T13:35:48;100408.88;;;9.70;100.00
76297;BME280;65104;52.994;6.552;2023-03-22T13:41:14;100414.81;;;9.68;100.00
76297;BME280;65104;52.994;6.552;2023-03-22T13:54:07;100408.72;;;9.61;100.00
76297;BME280;65104;52.994;6.552;2023-03-22T14:00:04;100405.28;;;9.59;100.00
76297;BME280;65104;52.994;6.552;2023-03-22T14:04:55;100405.22;;;9.55;100.00
76297;BME280;65104;52.994;6.552;2023-03-22T14:07:35;100404.41;;;9.59;100.00
76297;BME280;65104;52.994;6.552;2023-03-22T14:10:39;100401.91;;;9.62;100.00
76297;BME280;65104;52.994;6.552;2023-03-22T14:13:19;100410.56;;;9.70;100.00
76297;BME280;65104;52.994;6.552;2023-03-22T14:15:50;100403.69;;;9.67;100.00
76297;BME280;65104;52.994;6.552;2023-03-22T14:18:25;100405.34;;;9.64;100.00
76297;BME280;65104;52.994;6.552;2023-03-22T14:20:57;100401.06;;;9.63;100.00
76297;BME280;65104;52.994;6.552;2023-03-22T14:23:34;100399.41;;;9.65;100.00
76297;BME280;65104;52.994;6.552;2023-03-22T14:26:27;100402.84;;;9.68;100.00